Laura, Ohio
Current Conditions -  °F | °C
As of 5:56 PM on Tuesday 27 Jan 2015 (Local Time) from KDAY Reporting Station
Few Clouds Few Clouds  
Wind Chill:   Ceiling: Unl
Heat Index: 18°   Visibility: 7mi
Dew Point: 11°   Wind: 9mph
Humidity: 74%   Direction: 340°NNW
Pressure: 30.16"   Gusts: NA
Location:  39.99°N, 84.41°W
Report Text: KDAY 272256Z 34008KT 7SM FEW025 FEW150 M08/M12 A3016 RMK AO2 SLP231 T10781117
Loading
Personal Weather Stations






























Interactive Weather Map New forecast layout! Learn more

10-Day Weather Forecast

Advertisements
Track Severe Weather on mobile